sensor_id;sensor_type;location;lat;lon;timestamp;P1;durP1;ratioP1;P2;durP2;ratioP2
65289;SDS011;51893;59.754;10.110;2023-04-24T00:01:57;2.20;;;1.70;;
65289;SDS011;51893;59.754;10.110;2023-04-24T00:04:29;3.60;;;1.90;;
65289;SDS011;51893;59.754;10.110;2023-04-24T00:06:58;3.90;;;2.10;;
65289;SDS011;51893;59.754;10.110;2023-04-24T00:09:27;2.00;;;1.70;;
65289;SDS011;51893;59.754;10.110;2023-04-24T00:11:55;2.60;;;1.90;;
65289;SDS011;51893;59.754;10.110;2023-04-24T00:14:26;4.30;;;1.60;;
65289;SDS011;51893;59.754;10.110;2023-04-24T00:16:54;2.80;;;2.10;;
65289;SDS011;51893;59.754;10.110;2023-04-24T00:19:22;2.00;;;1.50;;
65289;SDS011;51893;59.754;10.110;2023-04-24T00:21:52;1.80;;;1.60;;
65289;SDS011;51893;59.754;10.110;2023-04-24T00:24:22;2.00;;;1.70;;
65289;SDS011;51893;59.754;10.110;2023-04-24T00:26:50;2.50;;;1.70;;
65289;SDS011;51893;59.754;10.110;2023-04-24T00:29:19;2.30;;;1.60;;
65289;SDS011;51893;59.754;10.110;2023-04-24T00:31:47;1.70;;;1.60;;
65289;SDS011;51893;59.754;10.110;2023-04-24T00:34:17;2.20;;;1.60;;
65289;SDS011;51893;59.754;10.110;2023-04-24T00:36:45;1.00;;;1.00;;
65289;SDS011;51893;59.754;10.110;2023-04-24T00:39:13;1.30;;;1.20;;
65289;SDS011;51893;59.754;10.110;2023-04-24T00:41:42;1.40;;;1.30;;
65289;SDS011;51893;59.754;10.110;2023-04-24T00:44:10;1.50;;;1.40;;
65289;SDS011;51893;59.754;10.110;2023-04-24T00:46:43;1.60;;;1.50;;
65289;SDS011;51893;59.754;10.110;2023-04-24T00:49:13;2.10;;;1.20;;
65289;SDS011;51893;59.754;10.110;2023-04-24T00:51:41;1.40;;;1.30;;
65289;SDS011;51893;59.754;10.110;2023-04-24T00:54:13;1.70;;;1.50;;
65289;SDS011;51893;59.754;10.110;2023-04-24T00:56:42;1.60;;;1.30;;
65289;SDS011;51893;59.754;10.110;2023-04-24T00:59:16;2.30;;;1.30;;
65289;SDS011;51893;59.754;10.110;2023-04-24T01:01:46;1.10;;;1.10;;
65289;SDS011;51893;59.754;10.110;2023-04-24T01:04:15;1.30;;;1.10;;
65289;SDS011;51893;59.754;10.110;2023-04-24T01:06:48;1.30;;;1.10;;
65289;SDS011;51893;59.754;10.110;2023-04-24T01:09:23;0.80;;;0.80;;
65289;SDS011;51893;59.754;10.110;2023-04-24T01:11:53;1.00;;;1.00;;
65289;SDS011;51893;59.754;10.110;2023-04-24T01:14:22;1.30;;;1.00;;
65289;SDS011;51893;59.754;10.110;2023-04-24T01:16:50;1.00;;;1.00;;
65289;SDS011;51893;59.754;10.110;2023-04-24T01:19:18;0.70;;;0.70;;
65289;SDS011;51893;59.754;10.110;2023-04-24T01:21:51;0.80;;;0.80;;
65289;SDS011;51893;59.754;10.110;2023-04-24T01:24:26;1.10;;;1.00;;
65289;SDS011;51893;59.754;10.110;2023-04-24T01:26:55;1.30;;;1.20;;
65289;SDS011;51893;59.754;10.110;2023-04-24T01:29:24;1.10;;;1.00;;
65289;SDS011;51893;59.754;10.110;2023-04-24T01:31:53;1.20;;;1.00;;
65289;SDS011;51893;59.754;10.110;2023-04-24T01:34:22;1.90;;;0.90;;
65289;SDS011;51893;59.754;10.110;2023-04-24T01:36:51;2.20;;;1.20;;
65289;SDS011;51893;59.754;10.110;2023-04-24T01:39:19;1.00;;;1.00;;
65289;SDS011;51893;59.754;10.110;2023-04-24T01:41:49;1.00;;;1.00;;
65289;SDS011;51893;59.754;10.110;2023-04-24T01:44:21;1.70;;;0.90;;
65289;SDS011;51893;59.754;10.110;2023-04-24T01:46:52;1.00;;;0.90;;
65289;SDS011;51893;59.754;10.110;2023-04-24T01:49:22;0.80;;;0.80;;
65289;SDS011;51893;59.754;10.110;2023-04-24T01:51:58;1.20;;;1.10;;
65289;SDS011;51893;59.754;10.110;2023-04-24T01:54:26;1.30;;;1.20;;
65289;SDS011;51893;59.754;10.110;2023-04-24T01:56:55;1.20;;;0.90;;
65289;SDS011;51893;59.754;10.110;2023-04-24T01:59:23;1.70;;;0.90;;
65289;SDS011;51893;59.754;10.110;2023-04-24T02:02:00;0.90;;;0.90;;
65289;SDS011;51893;59.754;10.110;2023-04-24T02:04:28;1.90;;;0.80;;
65289;SDS011;51893;59.754;10.110;2023-04-24T02:06:56;0.90;;;0.90;;
65289;SDS011;51893;59.754;10.110;2023-04-24T02:09:24;1.00;;;0.90;;
65289;SDS011;51893;59.754;10.110;2023-04-24T02:11:53;1.10;;;1.00;;
65289;SDS011;51893;59.754;10.110;2023-04-24T02:14:22;0.90;;;0.90;;
65289;SDS011;51893;59.754;10.110;2023-04-24T02:16:50;0.90;;;0.90;;
65289;SDS011;51893;59.754;10.110;2023-04-24T02:19:19;1.20;;;1.20;;
65289;SDS011;51893;59.754;10.110;2023-04-24T02:21:47;0.90;;;0.90;;
65289;SDS011;51893;59.754;10.110;2023-04-24T02:24:18;0.70;;;0.70;;
65289;SDS011;51893;59.754;10.110;2023-04-24T02:26:46;0.70;;;0.70;;
65289;SDS011;51893;59.754;10.110;2023-04-24T02:29:14;0.70;;;0.70;;
65289;SDS011;51893;59.754;10.110;2023-04-24T02:31:45;1.50;;;0.70;;
65289;SDS011;51893;59.754;10.110;2023-04-24T02:34:13;1.10;;;0.70;;
65289;SDS011;51893;59.754;10.110;2023-04-24T02:36:42;0.70;;;0.70;;
65289;SDS011;51893;59.754;10.110;2023-04-24T02:39:10;0.70;;;0.70;;
65289;SDS011;51893;59.754;10.110;2023-04-24T02:41:38;0.70;;;0.70;;
65289;SDS011;51893;59.754;10.110;2023-04-24T02:44:06;1.50;;;0.80;;
65289;SDS011;51893;59.754;10.110;2023-04-24T02:46:34;0.60;;;0.60;;
65289;SDS011;51893;59.754;10.110;2023-04-24T02:49:04;0.60;;;0.60;;
65289;SDS011;51893;59.754;10.110;2023-04-24T02:51:32;0.70;;;0.70;;
65289;SDS011;51893;59.754;10.110;2023-04-24T02:54:00;0.60;;;0.60;;
65289;SDS011;51893;59.754;10.110;2023-04-24T02:56:31;0.50;;;0.50;;
65289;SDS011;51893;59.754;10.110;2023-04-24T02:59:00;0.70;;;0.70;;
65289;SDS011;51893;59.754;10.110;2023-04-24T03:01:29;0.70;;;0.70;;
65289;SDS011;51893;59.754;10.110;2023-04-24T03:03:57;0.80;;;0.80;;
65289;SDS011;51893;59.754;10.110;2023-04-24T03:06:26;0.70;;;0.70;;
65289;SDS011;51893;59.754;10.110;2023-04-24T03:08:54;0.50;;;0.50;;
65289;SDS011;51893;59.754;10.110;2023-04-24T03:11:24;1.00;;;0.70;;
65289;SDS011;51893;59.754;10.110;2023-04-24T03:13:53;0.70;;;0.70;;
65289;SDS011;51893;59.754;10.110;2023-04-24T03:16:21;0.30;;;0.30;;
65289;SDS011;51893;59.754;10.110;2023-04-24T03:18:52;0.60;;;0.60;;
65289;SDS011;51893;59.754;10.110;2023-04-24T03:21:22;0.60;;;0.60;;
65289;SDS011;51893;59.754;10.110;2023-04-24T03:23:53;0.70;;;0.70;;
65289;SDS011;51893;59.754;10.110;2023-04-24T03:26:22;0.70;;;0.70;;
65289;SDS011;51893;59.754;10.110;2023-04-24T03:28:50;0.60;;;0.60;;
65289;SDS011;51893;59.754;10.110;2023-04-24T03:31:18;0.50;;;0.50;;
65289;SDS011;51893;59.754;10.110;2023-04-24T03:33:49;0.60;;;0.60;;
65289;SDS011;51893;59.754;10.110;2023-04-24T03:36:21;0.50;;;0.50;;
65289;SDS011;51893;59.754;10.110;2023-04-24T03:38:49;0.60;;;0.60;;
65289;SDS011;51893;59.754;10.110;2023-04-24T03:41:17;0.50;;;0.50;;
65289;SDS011;51893;59.754;10.110;2023-04-24T03:43:48;0.50;;;0.50;;
65289;SDS011;51893;59.754;10.110;2023-04-24T03:46:16;0.50;;;0.50;;
65289;SDS011;51893;59.754;10.110;2023-04-24T03:48:44;0.40;;;0.40;;
65289;SDS011;51893;59.754;10.110;2023-04-24T03:51:12;0.50;;;0.50;;
65289;SDS011;51893;59.754;10.110;2023-04-24T03:53:41;0.50;;;0.50;;
65289;SDS011;51893;59.754;10.110;2023-04-24T03:56:09;1.30;;;0.80;;
65289;SDS011;51893;59.754;10.110;2023-04-24T03:58:37;1.20;;;0.50;;
65289;SDS011;51893;59.754;10.110;2023-04-24T04:01:06;0.50;;;0.50;;
65289;SDS011;51893;59.754;10.110;2023-04-24T04:03:33;0.50;;;0.50;;
65289;SDS011;51893;59.754;10.110;2023-04-24T04:06:02;0.60;;;0.60;;
65289;SDS011;51893;59.754;10.110;2023-04-24T04:08:31;0.50;;;0.50;;
65289;SDS011;51893;59.754;10.110;2023-04-24T04:10:59;0.50;;;0.50;;
65289;SDS011;51893;59.754;10.110;2023-04-24T04:13:32;0.50;;;0.50;;
65289;SDS011;51893;59.754;10.110;2023-04-24T04:16:00;0.60;;;0.60;;
65289;SDS011;51893;59.754;10.110;2023-04-24T04:18:30;0.50;;;0.50;;
65289;SDS011;51893;59.754;10.110;2023-04-24T04:21:01;0.30;;;0.30;;
65289;SDS011;51893;59.754;10.110;2023-04-24T04:23:30;0.50;;;0.50;;
65289;SDS011;51893;59.754;10.110;2023-04-24T04:25:59;0.40;;;0.40;;
65289;SDS011;51893;59.754;10.110;2023-04-24T04:28:30;0.50;;;0.50;;
65289;SDS011;51893;59.754;10.110;2023-04-24T04:31:02;0.40;;;0.40;;
65289;SDS011;51893;59.754;10.110;2023-04-24T04:33:32;0.50;;;0.50;;
65289;SDS011;51893;59.754;10.110;2023-04-24T04:36:01;0.30;;;0.30;;
65289;SDS011;51893;59.754;10.110;2023-04-24T04:38:34;0.60;;;0.60;;
65289;SDS011;51893;59.754;10.110;2023-04-24T04:41:03;0.40;;;0.40;;
65289;SDS011;51893;59.754;10.110;2023-04-24T04:43:31;0.40;;;0.40;;
65289;SDS011;51893;59.754;10.110;2023-04-24T04:46:00;0.50;;;0.50;;
65289;SDS011;51893;59.754;10.110;2023-04-24T04:48:31;0.30;;;0.30;;
65289;SDS011;51893;59.754;10.110;2023-04-24T04:50:59;0.40;;;0.40;;
65289;SDS011;51893;59.754;10.110;2023-04-24T04:53:32;0.40;;;0.40;;
65289;SDS011;51893;59.754;10.110;2023-04-24T04:56:01;0.50;;;0.50;;
65289;SDS011;51893;59.754;10.110;2023-04-24T04:58:29;0.50;;;0.50;;
65289;SDS011;51893;59.754;10.110;2023-04-24T05:00:57;0.80;;;0.50;;
65289;SDS011;51893;59.754;10.110;2023-04-24T05:03:25;0.40;;;0.40;;
65289;SDS011;51893;59.754;10.110;2023-04-24T05:05:57;0.60;;;0.50;;
65289;SDS011;51893;59.754;10.110;2023-04-24T05:08:26;0.70;;;0.70;;
65289;SDS011;51893;59.754;10.110;2023-04-24T05:10:55;0.50;;;0.50;;
65289;SDS011;51893;59.754;10.110;2023-04-24T05:13:23;0.40;;;0.40;;
65289;SDS011;51893;59.754;10.110;2023-04-24T05:16:06;0.90;;;0.40;;
65289;SDS011;51893;59.754;10.110;2023-04-24T05:18:34;0.40;;;0.40;;
65289;SDS011;51893;59.754;10.110;2023-04-24T05:21:03;0.70;;;0.40;;
65289;SDS011;51893;59.754;10.110;2023-04-24T05:23:31;0.60;;;0.50;;
65289;SDS011;51893;59.754;10.110;2023-04-24T05:25:59;0.40;;;0.40;;
65289;SDS011;51893;59.754;10.110;2023-04-24T05:28:28;0.40;;;0.40;;
65289;SDS011;51893;59.754;10.110;2023-04-24T05:30:56;0.30;;;0.30;;
65289;SDS011;51893;59.754;10.110;2023-04-24T05:33:25;0.40;;;0.40;;
65289;SDS011;51893;59.754;10.110;2023-04-24T05:35:56;0.50;;;0.50;;
65289;SDS011;51893;59.754;10.110;2023-04-24T05:38:26;2.00;;;0.40;;
65289;SDS011;51893;59.754;10.110;2023-04-24T05:40:55;2.70;;;0.40;;
65289;SDS011;51893;59.754;10.110;2023-04-24T05:43:23;0.40;;;0.40;;
65289;SDS011;51893;59.754;10.110;2023-04-24T05:45:55;0.30;;;0.30;;
65289;SDS011;51893;59.754;10.110;2023-04-24T05:48:23;0.40;;;0.40;;
65289;SDS011;51893;59.754;10.110;2023-04-24T05:50:52;0.40;;;0.40;;
65289;SDS011;51893;59.754;10.110;2023-04-24T05:53:20;0.40;;;0.40;;
65289;SDS011;51893;59.754;10.110;2023-04-24T05:55:49;0.50;;;0.50;;
65289;SDS011;51893;59.754;10.110;2023-04-24T05:58:20;0.50;;;0.50;;
65289;SDS011;51893;59.754;10.110;2023-04-24T06:00:49;0.40;;;0.40;;
65289;SDS011;51893;59.754;10.110;2023-04-24T06:03:17;0.90;;;0.40;;
65289;SDS011;51893;59.754;10.110;2023-04-24T06:05:50;0.40;;;0.40;;
65289;SDS011;51893;59.754;10.110;2023-04-24T06:08:18;2.10;;;0.30;;
65289;SDS011;51893;59.754;10.110;2023-04-24T06:10:47;1.30;;;0.50;;
65289;SDS011;51893;59.754;10.110;2023-04-24T06:13:15;0.80;;;0.40;;
65289;SDS011;51893;59.754;10.110;2023-04-24T06:15:44;0.30;;;0.30;;
65289;SDS011;51893;59.754;10.110;2023-04-24T06:18:15;0.50;;;0.50;;
65289;SDS011;51893;59.754;10.110;2023-04-24T06:20:45;0.30;;;0.30;;
65289;SDS011;51893;59.754;10.110;2023-04-24T06:23:16;0.40;;;0.40;;
65289;SDS011;51893;59.754;10.110;2023-04-24T06:25:45;0.80;;;0.40;;
65289;SDS011;51893;59.754;10.110;2023-04-24T06:28:14;0.40;;;0.40;;
65289;SDS011;51893;59.754;10.110;2023-04-24T06:30:45;0.50;;;0.50;;
65289;SDS011;51893;59.754;10.110;2023-04-24T06:33:13;0.60;;;0.60;;
65289;SDS011;51893;59.754;10.110;2023-04-24T06:35:47;0.60;;;0.60;;
65289;SDS011;51893;59.754;10.110;2023-04-24T06:38:15;0.40;;;0.40;;
65289;SDS011;51893;59.754;10.110;2023-04-24T06:40:44;0.50;;;0.50;;
65289;SDS011;51893;59.754;10.110;2023-04-24T06:43:13;0.40;;;0.40;;
65289;SDS011;51893;59.754;10.110;2023-04-24T06:45:45;0.30;;;0.30;;
65289;SDS011;51893;59.754;10.110;2023-04-24T06:48:17;0.90;;;0.60;;
65289;SDS011;51893;59.754;10.110;2023-04-24T06:50:44;0.40;;;0.40;;
65289;SDS011;51893;59.754;10.110;2023-04-24T06:53:13;0.60;;;0.50;;
65289;SDS011;51893;59.754;10.110;2023-04-24T06:55:43;0.40;;;0.40;;
65289;SDS011;51893;59.754;10.110;2023-04-24T06:58:12;1.10;;;0.70;;
65289;SDS011;51893;59.754;10.110;2023-04-24T07:00:45;1.40;;;0.60;;
65289;SDS011;51893;59.754;10.110;2023-04-24T07:03:16;0.30;;;0.30;;
65289;SDS011;51893;59.754;10.110;2023-04-24T07:05:46;0.40;;;0.40;;
65289;SDS011;51893;59.754;10.110;2023-04-24T07:08:16;0.40;;;0.40;;
65289;SDS011;51893;59.754;10.110;2023-04-24T07:10:46;0.40;;;0.40;;
65289;SDS011;51893;59.754;10.110;2023-04-24T07:13:15;0.40;;;0.40;;
65289;SDS011;51893;59.754;10.110;2023-04-24T07:15:44;0.70;;;0.40;;
65289;SDS011;51893;59.754;10.110;2023-04-24T07:18:19;0.40;;;0.40;;
65289;SDS011;51893;59.754;10.110;2023-04-24T07:20:52;0.60;;;0.60;;
65289;SDS011;51893;59.754;10.110;2023-04-24T07:23:21;0.40;;;0.40;;
65289;SDS011;51893;59.754;10.110;2023-04-24T07:25:51;0.50;;;0.50;;
65289;SDS011;51893;59.754;10.110;2023-04-24T07:28:23;0.50;;;0.50;;
65289;SDS011;51893;59.754;10.110;2023-04-24T07:30:57;0.50;;;0.50;;
65289;SDS011;51893;59.754;10.110;2023-04-24T07:33:26;0.40;;;0.40;;
65289;SDS011;51893;59.754;10.110;2023-04-24T07:35:57;0.40;;;0.40;;
65289;SDS011;51893;59.754;10.110;2023-04-24T07:38:30;0.60;;;0.60;;
65289;SDS011;51893;59.754;10.110;2023-04-24T07:41:01;0.50;;;0.50;;
65289;SDS011;51893;59.754;10.110;2023-04-24T07:43:30;2.10;;;0.50;;
65289;SDS011;51893;59.754;10.110;2023-04-24T07:46:01;0.50;;;0.50;;
65289;SDS011;51893;59.754;10.110;2023-04-24T07:48:36;0.70;;;0.60;;
65289;SDS011;51893;59.754;10.110;2023-04-24T07:51:04;0.50;;;0.50;;
65289;SDS011;51893;59.754;10.110;2023-04-24T07:53:32;0.50;;;0.50;;
65289;SDS011;51893;59.754;10.110;2023-04-24T07:56:01;0.50;;;0.50;;
65289;SDS011;51893;59.754;10.110;2023-04-24T07:58:31;0.50;;;0.50;;
65289;SDS011;51893;59.754;10.110;2023-04-24T08:01:00;0.90;;;0.60;;
65289;SDS011;51893;59.754;10.110;2023-04-24T08:03:28;0.60;;;0.60;;
65289;SDS011;51893;59.754;10.110;2023-04-24T08:05:56;0.80;;;0.60;;
65289;SDS011;51893;59.754;10.110;2023-04-24T08:08:24;0.70;;;0.60;;
65289;SDS011;51893;59.754;10.110;2023-04-24T08:10:53;3.90;;;0.80;;
65289;SDS011;51893;59.754;10.110;2023-04-24T08:13:24;0.50;;;0.50;;
65289;SDS011;51893;59.754;10.110;2023-04-24T08:15:53;0.60;;;0.60;;
65289;SDS011;51893;59.754;10.110;2023-04-24T08:18:24;0.50;;;0.50;;
65289;SDS011;51893;59.754;10.110;2023-04-24T08:20:56;0.60;;;0.60;;
65289;SDS011;51893;59.754;10.110;2023-04-24T08:23:29;0.40;;;0.40;;
65289;SDS011;51893;59.754;10.110;2023-04-24T08:25:57;0.80;;;0.80;;
65289;SDS011;51893;59.754;10.110;2023-04-24T08:28:32;0.50;;;0.50;;
65289;SDS011;51893;59.754;10.110;2023-04-24T08:31:01;0.60;;;0.60;;
65289;SDS011;51893;59.754;10.110;2023-04-24T08:33:29;0.60;;;0.60;;
65289;SDS011;51893;59.754;10.110;2023-04-24T08:36:04;1.00;;;0.70;;
65289;SDS011;51893;59.754;10.110;2023-04-24T08:38:34;1.40;;;0.60;;
65289;SDS011;51893;59.754;10.110;2023-04-24T08:41:02;0.70;;;0.70;;
65289;SDS011;51893;59.754;10.110;2023-04-24T08:43:33;1.20;;;0.60;;
65289;SDS011;51893;59.754;10.110;2023-04-24T08:46:04;0.80;;;0.70;;
65289;SDS011;51893;59.754;10.110;2023-04-24T08:51:08;0.60;;;0.60;;
65289;SDS011;51893;59.754;10.110;2023-04-24T08:53:40;1.10;;;0.70;;
65289;SDS011;51893;59.754;10.110;2023-04-24T08:56:09;0.70;;;0.60;;
65289;SDS011;51893;59.754;10.110;2023-04-24T08:58:45;0.60;;;0.60;;
65289;SDS011;51893;59.754;10.110;2023-04-24T09:01:18;3.80;;;0.60;;
65289;SDS011;51893;59.754;10.110;2023-04-24T09:03:51;0.90;;;0.50;;
65289;SDS011;51893;59.754;10.110;2023-04-24T09:08:50;0.50;;;0.50;;
65289;SDS011;51893;59.754;10.110;2023-04-24T09:11:24;0.40;;;0.40;;
65289;SDS011;51893;59.754;10.110;2023-04-24T09:13:54;0.60;;;0.60;;
65289;SDS011;51893;59.754;10.110;2023-04-24T09:16:26;0.50;;;0.50;;
65289;SDS011;51893;59.754;10.110;2023-04-24T09:18:55;1.10;;;0.40;;
65289;SDS011;51893;59.754;10.110;2023-04-24T09:21:33;1.20;;;1.00;;
65289;SDS011;51893;59.754;10.110;2023-04-24T09:24:08;1.00;;;0.70;;
65289;SDS011;51893;59.754;10.110;2023-04-24T09:26:56;0.60;;;0.60;;
65289;SDS011;51893;59.754;10.110;2023-04-24T09:29:37;0.50;;;0.50;;
65289;SDS011;51893;59.754;10.110;2023-04-24T09:32:19;1.20;;;1.20;;
65289;SDS011;51893;59.754;10.110;2023-04-24T09:37:39;0.70;;;0.70;;
65289;SDS011;51893;59.754;10.110;2023-04-24T09:40:18;0.80;;;0.70;;
65289;SDS011;51893;59.754;10.110;2023-04-24T09:42:55;2.20;;;0.90;;
65289;SDS011;51893;59.754;10.110;2023-04-24T09:45:35;0.90;;;0.90;;
65289;SDS011;51893;59.754;10.110;2023-04-24T09:48:04;3.10;;;1.00;;
65289;SDS011;51893;59.754;10.110;2023-04-24T09:50:36;0.80;;;0.70;;
65289;SDS011;51893;59.754;10.110;2023-04-24T09:53:05;0.70;;;0.70;;
65289;SDS011;51893;59.754;10.110;2023-04-24T09:55:39;0.70;;;0.70;;
65289;SDS011;51893;59.754;10.110;2023-04-24T09:58:16;0.60;;;0.60;;
65289;SDS011;51893;59.754;10.110;2023-04-24T10:00:53;0.70;;;0.70;;
65289;SDS011;51893;59.754;10.110;2023-04-24T10:03:25;0.60;;;0.60;;
65289;SDS011;51893;59.754;10.110;2023-04-24T10:05:58;0.40;;;0.40;;
65289;SDS011;51893;59.754;10.110;2023-04-24T10:08:33;0.60;;;0.60;;
65289;SDS011;51893;59.754;10.110;2023-04-24T10:11:04;0.50;;;0.50;;
65289;SDS011;51893;59.754;10.110;2023-04-24T10:13:33;0.60;;;0.60;;
65289;SDS011;51893;59.754;10.110;2023-04-24T10:16:05;0.50;;;0.50;;
65289;SDS011;51893;59.754;10.110;2023-04-24T10:18:35;0.40;;;0.40;;
65289;SDS011;51893;59.754;10.110;2023-04-24T10:21:04;0.50;;;0.50;;
65289;SDS011;51893;59.754;10.110;2023-04-24T10:23:33;0.40;;;0.40;;
65289;SDS011;51893;59.754;10.110;2023-04-24T10:26:01;0.30;;;0.30;;
65289;SDS011;51893;59.754;10.110;2023-04-24T10:28:30;0.40;;;0.40;;
65289;SDS011;51893;59.754;10.110;2023-04-24T10:31:01;0.60;;;0.50;;
65289;SDS011;51893;59.754;10.110;2023-04-24T10:33:31;2.70;;;0.60;;
65289;SDS011;51893;59.754;10.110;2023-04-24T10:36:01;0.50;;;0.50;;
65289;SDS011;51893;59.754;10.110;2023-04-24T10:38:30;0.50;;;0.50;;
65289;SDS011;51893;59.754;10.110;2023-04-24T10:41:10;0.40;;;0.40;;
65289;SDS011;51893;59.754;10.110;2023-04-24T10:44:14;0.50;;;0.50;;
65289;SDS011;51893;59.754;10.110;2023-04-24T10:46:46;0.60;;;0.50;;
65289;SDS011;51893;59.754;10.110;2023-04-24T10:49:31;0.60;;;0.60;;
65289;SDS011;51893;59.754;10.110;2023-04-24T10:52:01;0.40;;;0.40;;
65289;SDS011;51893;59.754;10.110;2023-04-24T10:54:48;0.30;;;0.30;;
65289;SDS011;51893;59.754;10.110;2023-04-24T11:02:52;0.50;;;0.50;;
65289;SDS011;51893;59.754;10.110;2023-04-24T11:05:22;0.40;;;0.40;;
65289;SDS011;51893;59.754;10.110;2023-04-24T11:08:14;0.30;;;0.30;;
65289;SDS011;51893;59.754;10.110;2023-04-24T11:10:45;0.40;;;0.40;;
65289;SDS011;51893;59.754;10.110;2023-04-24T11:13:22;0.50;;;0.40;;
65289;SDS011;51893;59.754;10.110;2023-04-24T11:16:14;0.30;;;0.30;;
65289;SDS011;51893;59.754;10.110;2023-04-24T11:19:06;0.30;;;0.30;;
65289;SDS011;51893;59.754;10.110;2023-04-24T11:21:42;0.40;;;0.40;;
65289;SDS011;51893;59.754;10.110;2023-04-24T11:27:20;0.40;;;0.40;;
65289;SDS011;51893;59.754;10.110;2023-04-24T11:32:33;0.40;;;0.40;;
65289;SDS011;51893;59.754;10.110;2023-04-24T11:35:21;0.40;;;0.40;;
65289;SDS011;51893;59.754;10.110;2023-04-24T11:37:55;0.40;;;0.40;;
65289;SDS011;51893;59.754;10.110;2023-04-24T11:40:29;0.50;;;0.50;;
65289;SDS011;51893;59.754;10.110;2023-04-24T11:42:59;0.40;;;0.40;;
65289;SDS011;51893;59.754;10.110;2023-04-24T11:45:31;0.50;;;0.50;;
65289;SDS011;51893;59.754;10.110;2023-04-24T11:47:59;0.30;;;0.30;;
65289;SDS011;51893;59.754;10.110;2023-04-24T11:50:28;0.40;;;0.40;;
65289;SDS011;51893;59.754;10.110;2023-04-24T11:52:57;0.30;;;0.30;;
65289;SDS011;51893;59.754;10.110;2023-04-24T11:55:27;0.30;;;0.30;;
65289;SDS011;51893;59.754;10.110;2023-04-24T11:57:59;0.50;;;0.50;;
65289;SDS011;51893;59.754;10.110;2023-04-24T12:00:31;0.40;;;0.40;;
65289;SDS011;51893;59.754;10.110;2023-04-24T12:03:13;0.40;;;0.40;;
65289;SDS011;51893;59.754;10.110;2023-04-24T12:05:41;0.50;;;0.50;;
65289;SDS011;51893;59.754;10.110;2023-04-24T12:08:10;0.70;;;0.40;;
65289;SDS011;51893;59.754;10.110;2023-04-24T12:10:44;0.40;;;0.40;;
65289;SDS011;51893;59.754;10.110;2023-04-24T12:13:12;0.30;;;0.30;;
65289;SDS011;51893;59.754;10.110;2023-04-24T12:15:43;0.30;;;0.30;;
65289;SDS011;51893;59.754;10.110;2023-04-24T12:18:12;0.50;;;0.50;;
65289;SDS011;51893;59.754;10.110;2023-04-24T12:20:43;0.50;;;0.50;;
65289;SDS011;51893;59.754;10.110;2023-04-24T12:23:11;0.30;;;0.30;;
65289;SDS011;51893;59.754;10.110;2023-04-24T12:25:39;0.30;;;0.30;;
65289;SDS011;51893;59.754;10.110;2023-04-24T12:28:11;0.50;;;0.30;;
65289;SDS011;51893;59.754;10.110;2023-04-24T12:30:47;0.30;;;0.30;;
65289;SDS011;51893;59.754;10.110;2023-04-24T12:33:21;0.40;;;0.40;;
65289;SDS011;51893;59.754;10.110;2023-04-24T12:35:53;0.30;;;0.30;;
65289;SDS011;51893;59.754;10.110;2023-04-24T12:38:28;0.40;;;0.40;;
65289;SDS011;51893;59.754;10.110;2023-04-24T12:41:06;0.40;;;0.40;;
65289;SDS011;51893;59.754;10.110;2023-04-24T12:43:37;0.40;;;0.40;;
65289;SDS011;51893;59.754;10.110;2023-04-24T12:46:06;2.40;;;0.60;;
65289;SDS011;51893;59.754;10.110;2023-04-24T12:48:34;0.40;;;0.40;;
65289;SDS011;51893;59.754;10.110;2023-04-24T12:51:04;0.40;;;0.40;;
65289;SDS011;51893;59.754;10.110;2023-04-24T12:53:34;0.60;;;0.40;;
65289;SDS011;51893;59.754;10.110;2023-04-24T12:56:02;0.50;;;0.50;;
65289;SDS011;51893;59.754;10.110;2023-04-24T12:58:31;0.70;;;0.40;;
65289;SDS011;51893;59.754;10.110;2023-04-24T13:01:00;0.40;;;0.40;;
65289;SDS011;51893;59.754;10.110;2023-04-24T13:03:29;0.30;;;0.30;;
65289;SDS011;51893;59.754;10.110;2023-04-24T13:05:59;0.30;;;0.30;;
65289;SDS011;51893;59.754;10.110;2023-04-24T13:08:27;0.30;;;0.30;;
65289;SDS011;51893;59.754;10.110;2023-04-24T13:10:56;0.40;;;0.40;;
65289;SDS011;51893;59.754;10.110;2023-04-24T13:13:26;1.70;;;0.30;;
65289;SDS011;51893;59.754;10.110;2023-04-24T13:15:54;0.50;;;0.50;;
65289;SDS011;51893;59.754;10.110;2023-04-24T13:18:23;0.40;;;0.40;;
65289;SDS011;51893;59.754;10.110;2023-04-24T13:20:53;0.30;;;0.30;;
65289;SDS011;51893;59.754;10.110;2023-04-24T13:23:22;0.40;;;0.40;;
65289;SDS011;51893;59.754;10.110;2023-04-24T13:25:50;0.40;;;0.40;;
65289;SDS011;51893;59.754;10.110;2023-04-24T13:28:18;0.40;;;0.40;;
65289;SDS011;51893;59.754;10.110;2023-04-24T13:30:46;1.20;;;1.10;;
65289;SDS011;51893;59.754;10.110;2023-04-24T13:33:16;0.70;;;0.70;;
65289;SDS011;51893;59.754;10.110;2023-04-24T13:35:45;0.40;;;0.40;;
65289;SDS011;51893;59.754;10.110;2023-04-24T13:38:14;0.40;;;0.40;;
65289;SDS011;51893;59.754;10.110;2023-04-24T13:40:42;0.30;;;0.30;;
65289;SDS011;51893;59.754;10.110;2023-04-24T13:43:13;0.30;;;0.30;;
65289;SDS011;51893;59.754;10.110;2023-04-24T13:45:43;0.40;;;0.40;;
65289;SDS011;51893;59.754;10.110;2023-04-24T13:48:11;0.30;;;0.30;;
65289;SDS011;51893;59.754;10.110;2023-04-24T13:50:43;0.40;;;0.40;;
65289;SDS011;51893;59.754;10.110;2023-04-24T13:53:12;0.30;;;0.30;;
65289;SDS011;51893;59.754;10.110;2023-04-24T13:55:40;0.40;;;0.40;;
65289;SDS011;51893;59.754;10.110;2023-04-24T13:58:09;0.50;;;0.50;;
65289;SDS011;51893;59.754;10.110;2023-04-24T14:00:42;0.50;;;0.50;;
65289;SDS011;51893;59.754;10.110;2023-04-24T14:03:12;0.50;;;0.50;;
65289;SDS011;51893;59.754;10.110;2023-04-24T14:05:40;0.40;;;0.40;;
65289;SDS011;51893;59.754;10.110;2023-04-24T14:08:08;0.30;;;0.30;;
65289;SDS011;51893;59.754;10.110;2023-04-24T14:10:37;0.40;;;0.40;;
65289;SDS011;51893;59.754;10.110;2023-04-24T14:13:08;0.30;;;0.30;;
65289;SDS011;51893;59.754;10.110;2023-04-24T14:15:40;0.50;;;0.50;;
65289;SDS011;51893;59.754;10.110;2023-04-24T14:18:08;0.50;;;0.50;;
65289;SDS011;51893;59.754;10.110;2023-04-24T14:20:36;0.40;;;0.40;;
65289;SDS011;51893;59.754;10.110;2023-04-24T14:23:04;0.40;;;0.40;;
65289;SDS011;51893;59.754;10.110;2023-04-24T14:25:32;0.40;;;0.40;;
65289;SDS011;51893;59.754;10.110;2023-04-24T14:28:01;0.40;;;0.40;;
65289;SDS011;51893;59.754;10.110;2023-04-24T14:30:29;0.50;;;0.50;;
65289;SDS011;51893;59.754;10.110;2023-04-24T14:32:57;0.50;;;0.50;;
65289;SDS011;51893;59.754;10.110;2023-04-24T14:35:26;1.00;;;0.30;;
65289;SDS011;51893;59.754;10.110;2023-04-24T14:37:57;0.30;;;0.30;;
65289;SDS011;51893;59.754;10.110;2023-04-24T14:40:29;0.30;;;0.30;;
65289;SDS011;51893;59.754;10.110;2023-04-24T14:43:05;0.40;;;0.40;;
65289;SDS011;51893;59.754;10.110;2023-04-24T14:45:34;0.40;;;0.40;;
65289;SDS011;51893;59.754;10.110;2023-04-24T14:48:03;0.40;;;0.40;;
65289;SDS011;51893;59.754;10.110;2023-04-24T14:50:32;0.40;;;0.40;;
65289;SDS011;51893;59.754;10.110;2023-04-24T14:53:06;0.40;;;0.40;;
65289;SDS011;51893;59.754;10.110;2023-04-24T14:55:36;0.40;;;0.40;;
65289;SDS011;51893;59.754;10.110;2023-04-24T14:58:06;0.40;;;0.40;;
65289;SDS011;51893;59.754;10.110;2023-04-24T15:00:37;0.30;;;0.30;;
65289;SDS011;51893;59.754;10.110;2023-04-24T15:03:07;0.40;;;0.40;;
65289;SDS011;51893;59.754;10.110;2023-04-24T15:05:36;0.40;;;0.40;;
65289;SDS011;51893;59.754;10.110;2023-04-24T15:08:05;0.50;;;0.50;;
65289;SDS011;51893;59.754;10.110;2023-04-24T15:10:34;0.50;;;0.40;;
65289;SDS011;51893;59.754;10.110;2023-04-24T15:13:02;0.50;;;0.50;;